Time;durP1;ratioP1;P1;durP2;ratioP2;P2;SDS_P1;SDS_P2;PMS_P1;PMS_P2;Temp;Humidity;BMP_temperature;BMP_pressure;BME280_temperature;BME280_humidity;BME280_pressure;Samples;Min_cycle;Max_cycle;Signal;HPM_P1;HPM_P2
2023/05/25 00:02:53;;;;;;;5.37;4.83;;;;;;;22.28;44.18;95013.38;6104324;28;111347;-73
2023/05/25 00:06:00;;;;;;;4.90;4.47;;;;;;;22.29;44.51;95020.28;6115362;28;109093;-73
2023/05/25 00:09:03;;;;;;;6.20;5.00;;;;;;;22.28;44.34;95017.91;6105071;28;108929;-74
2023/05/25 00:12:07;;;;;;;6.87;5.43;;;;;;;22.26;44.46;95014.78;6113994;28;109625;-74
2023/05/25 00:15:12;;;;;;;5.30;4.83;;;;;;;22.28;45.01;95021.38;6098505;28;109045;-75
2023/05/25 00:18:17;;;;;;;6.50;5.60;;;;;;;22.27;44.93;95019.03;6111369;28;109282;-73
2023/05/25 00:21:20;;;;;;;5.13;4.73;;;;;;;22.26;44.36;95018.22;6112748;28;109012;-74
2023/05/25 00:24:24;;;;;;;7.40;5.00;;;;;;;22.26;44.90;95025.44;6109179;28;110683;-73
2023/05/25 00:27:27;;;;;;;5.63;5.13;;;;;;;22.24;44.69;95025.75;6109824;28;111386;-73
2023/05/25 00:30:32;;;;;;;4.63;4.33;;;;;;;22.23;44.76;95031.41;6113898;28;109081;-74
2023/05/25 00:33:35;;;;;;;5.73;4.73;;;;;;;22.24;44.44;95022.31;6099497;28;109475;-74
2023/05/25 00:36:39;;;;;;;5.33;4.83;;;;;;;22.21;44.33;95025.59;6102965;28;110142;-65
2023/05/25 00:39:42;;;;;;;5.07;4.70;;;;;;;22.22;44.54;95037.81;6116550;28;109999;-66
2023/05/25 00:42:45;;;;;;;5.70;5.10;;;;;;;22.19;44.84;95033.88;6129250;28;110039;-65
2023/05/25 00:45:50;;;;;;;5.47;5.07;;;;;;;22.17;44.83;95037.94;6112825;28;109337;-65
2023/05/25 00:48:55;;;;;;;5.03;4.63;;;;;;;22.13;44.79;95034.31;6102997;28;109416;-65
2023/05/25 00:51:58;;;;;;;5.40;4.90;;;;;;;22.13;44.69;95040.44;6113143;28;110085;-65
2023/05/25 00:55:04;;;;;;;5.13;4.73;;;;;;;22.13;44.75;95035.09;6113819;28;109988;-66
2023/05/25 00:58:08;;;;;;;4.93;4.63;;;;;;;22.13;44.97;95039.63;6112344;28;109111;-67
2023/05/25 01:01:15;;;;;;;5.27;4.87;;;;;;;22.14;45.20;95044.66;6104811;28;112549;-66
2023/05/25 01:04:21;;;;;;;5.10;4.70;;;;;;;22.10;45.04;95035.72;6113475;28;109011;-66
2023/05/25 01:07:26;;;;;;;4.63;4.23;;;;;;;22.14;44.73;95043.88;6112564;28;109414;-67
2023/05/25 01:10:32;;;;;;;5.23;4.83;;;;;;;22.13;45.01;95045.75;6102679;28;109986;-67
2023/05/25 01:13:37;;;;;;;5.50;5.00;;;;;;;22.11;44.75;95043.41;6112248;28;109245;-66
2023/05/25 01:16:43;;;;;;;6.90;5.00;;;;;;;22.12;44.92;95041.53;6115086;28;109372;-66
2023/05/25 01:19:46;;;;;;;5.30;4.80;;;;;;;22.10;44.62;95036.50;6112146;28;109405;-66
2023/05/25 01:23:16;;;;;;;5.17;4.77;;;;;;;22.10;44.54;95033.03;6102433;28;109081;-65
2023/05/25 01:26:23;;;;;;;5.07;4.63;;;;;;;22.09;44.79;95032.25;6112193;28;109180;-65
2023/05/25 01:29:28;;;;;;;4.90;4.50;;;;;;;22.10;44.80;95027.72;6112511;28;109060;-65
2023/05/25 01:32:32;;;;;;;5.50;5.10;;;;;;;22.10;44.31;95033.03;6106959;28;109422;-67
2023/05/25 01:35:36;;;;;;;5.13;4.73;;;;;;;22.08;44.53;95033.34;6105762;28;108974;-67
2023/05/25 01:38:41;;;;;;;5.17;4.77;;;;;;;22.08;44.27;95030.69;6112291;28;109486;-67
2023/05/25 01:41:45;;;;;;;4.97;4.57;;;;;;;22.07;44.49;95029.13;6112342;28;109076;-67
2023/05/25 01:44:48;;;;;;;4.93;4.63;;;;;;;22.06;44.47;95024.88;6101742;28;109484;-74
2023/05/25 01:48:01;;;;;;;5.63;4.80;;;;;;;22.05;44.73;95017.97;6112056;28;108964;-73
2023/05/25 01:51:11;;;;;;;5.33;5.00;;;;;;;22.05;44.18;95017.97;6112116;28;109429;-73
2023/05/25 01:54:20;;;;;;;5.60;5.10;;;;;;;22.05;44.31;95023.31;6108807;28;111929;-73
2023/05/25 01:57:24;;;;;;;5.03;4.53;;;;;;;22.02;44.40;95017.81;6100880;28;109090;-73
2023/05/25 02:00:31;;;;;;;5.93;4.90;;;;;;;22.01;44.13;95025.03;6101703;28;109568;-74
2023/05/25 02:03:35;;;;;;;5.90;5.30;;;;;;;21.99;44.35;95019.19;6111473;28;109057;-74
2023/05/25 02:06:38;;;;;;;4.97;4.60;;;;;;;21.98;43.92;95025.59;6107028;28;110301;-74
2023/05/25 02:09:43;;;;;;;5.30;4.80;;;;;;;22.00;44.39;95027.97;6105246;28;110206;-73
2023/05/25 02:12:46;;;;;;;5.63;5.10;;;;;;;21.98;44.33;95030.16;6112396;28;109768;-73
2023/05/25 02:15:49;;;;;;;6.27;5.83;;;;;;;21.99;44.41;95034.38;6110262;28;109162;-73
2023/05/25 02:18:52;;;;;;;5.47;5.00;;;;;;;21.95;43.89;95026.22;6102401;28;110840;-71
2023/05/25 02:21:56;;;;;;;5.23;4.83;;;;;;;21.97;44.32;95026.69;6108666;28;109419;-71
2023/05/25 02:25:08;;;;;;;4.70;4.40;;;;;;;21.97;43.81;95033.91;6105026;28;110178;-74
2023/05/25 02:28:12;;;;;;;6.30;5.23;;;;;;;21.96;44.20;95030.47;6110141;28;109296;-73
2023/05/25 02:31:15;;;;;;;6.90;5.53;;;;;;;21.97;44.36;95042.69;6100891;28;109148;-73
2023/05/25 02:34:18;;;;;;;6.17;5.03;;;;;;;21.97;43.86;95039.25;6111167;28;111472;-73
2023/05/25 02:37:21;;;;;;;6.83;4.90;;;;;;;21.96;44.10;95049.09;6111343;28;109316;-73
2023/05/25 02:40:26;;;;;;;6.23;4.70;;;;;;;21.97;43.98;95055.22;6109759;28;109380;-72
2023/05/25 02:43:29;;;;;;;5.60;5.10;;;;;;;21.99;44.16;95059.16;6118110;28;109074;-73
2023/05/25 02:46:33;;;;;;;7.33;5.30;;;;;;;21.96;44.08;95058.97;6113030;28;108974;-72
2023/05/25 02:49:36;;;;;;;5.47;5.07;;;;;;;21.93;44.29;95064.91;6111367;28;109392;-72
2023/05/25 02:52:39;;;;;;;6.00;4.80;;;;;;;21.95;44.39;95076.06;6101528;28;109398;-72
2023/05/25 02:55:44;;;;;;;5.80;4.73;;;;;;;21.91;43.70;95075.88;6110169;28;109429;-67
2023/05/25 02:58:47;;;;;;;6.53;4.90;;;;;;;21.94;43.89;95077.16;6110590;28;109087;-67
2023/05/25 03:01:51;;;;;;;7.33;5.00;;;;;;;21.93;44.36;95081.69;6101732;28;109039;-67
2023/05/25 03:04:54;;;;;;;5.10;4.53;;;;;;;21.90;44.13;95076.97;6100819;28;111568;-68
2023/05/25 03:07:57;;;;;;;5.57;5.10;;;;;;;21.95;44.56;95084.84;6110484;28;109386;-67
2023/05/25 03:11:02;;;;;;;8.57;5.73;;;;;;;21.95;44.28;95071.50;6109662;28;109230;-67
2023/05/25 03:14:05;;;;;;;6.60;5.70;;;;;;;21.97;44.58;95074.66;6101138;28;111389;-66
2023/05/25 03:17:08;;;;;;;7.50;5.00;;;;;;;21.98;45.07;95086.88;6099709;28;109080;-68
2023/05/25 03:20:14;;;;;;;8.70;5.87;;;;;;;21.98;45.13;95094.09;6111399;28;108865;-67
2023/05/25 03:23:17;;;;;;;50.13;32.03;;;;;;;21.85;44.87;95095.75;6109265;28;110176;-61
2023/05/25 03:26:24;;;;;;;44.83;37.50;;;;;;;21.74;44.89;95086.38;6092185;28;111256;-62
2023/05/25 03:29:27;;;;;;;32.07;29.17;;;;;;;21.66;45.14;95085.22;6104443;28;109016;-62
2023/05/25 03:32:31;;;;;;;20.07;18.30;;;;;;;21.61;45.18;95095.22;6109271;28;109086;-61
2023/05/25 03:35:37;;;;;;;16.87;15.27;;;;;;;21.58;45.44;95091.28;6117015;28;109432;-62
2023/05/25 03:38:40;;;;;;;13.10;11.90;;;;;;;21.56;45.36;95090.00;6119787;28;110439;-61
2023/05/25 03:41:45;;;;;;;12.40;10.20;;;;;;;21.54;45.06;95086.84;6107751;28;109032;-62
2023/05/25 03:44:48;;;;;;;9.70;8.70;;;;;;;21.54;44.95;95092.97;6109314;28;109437;-61
2023/05/25 03:47:51;;;;;;;10.17;9.37;;;;;;;21.49;45.01;95088.53;6109698;28;110421;-61
2023/05/25 03:50:54;;;;;;;8.43;7.73;;;;;;;21.49;44.79;95093.84;6098440;28;109421;-62
2023/05/25 03:53:57;;;;;;;7.03;6.30;;;;;;;21.44;44.83;95093.97;6109419;28;109162;-62
2023/05/25 03:57:02;;;;;;;9.27;6.00;;;;;;;21.50;44.75;95099.97;6112295;28;109422;-62
2023/05/25 04:00:08;;;;;;;12.97;6.93;;;;;;;21.49;44.79;95101.84;6111311;28;110948;-67
2023/05/25 04:03:11;;;;;;;27.43;8.70;;;;;;;21.61;45.13;95103.19;6107868;28;109152;-67
2023/05/25 04:06:18;;;;;;;27.03;9.30;;;;;;;21.71;44.66;95105.63;6111628;28;109080;-70
2023/05/25 04:09:21;;;;;;;19.67;8.87;;;;;;;21.76;44.84;95108.19;6112799;28;109062;-73
2023/05/25 04:12:25;;;;;;;7.50;6.60;;;;;;;21.67;45.13;95112.63;6102840;28;112593;-72
2023/05/25 04:15:29;;;;;;;8.63;6.40;;;;;;;21.43;45.22;95119.00;6112252;28;109275;-70
2023/05/25 04:18:32;;;;;;;6.70;6.00;;;;;;;21.41;45.79;95118.53;6114119;28;110483;-70
2023/05/25 04:21:35;;;;;;;11.53;6.10;;;;;;;21.56;45.71;95128.06;6112307;28;109154;-70
2023/05/25 04:24:39;;;;;;;16.10;11.00;;;;;;;21.70;45.75;95120.03;6100922;28;109251;-71
2023/05/25 04:27:45;;;;;;;17.93;13.47;;;;;;;21.78;44.70;95117.44;6113267;28;110090;-71
2023/05/25 04:30:48;;;;;;;21.10;8.33;;;;;;;21.79;45.84;95123.56;6112916;28;109122;-74
2023/05/25 04:33:54;;;;;;;7.93;6.30;;;;;;;21.73;45.25;95127.44;6114065;28;108967;-74
2023/05/25 04:37:02;;;;;;;19.50;6.70;;;;;;;21.62;45.83;95132.19;6101763;28;110325;-74
2023/05/25 04:40:12;;;;;;;14.20;6.47;;;;;;;21.57;45.79;95136.84;6113405;28;109626;-67
2023/05/25 04:43:19;;;;;;;19.80;7.37;;;;;;;21.52;46.05;95137.75;6114006;28;111111;-72
2023/05/25 04:46:22;;;;;;;41.37;8.60;;;;;;;21.50;46.26;95138.03;6104075;28;108860;-72
2023/05/25 04:49:26;;;;;;;28.73;8.63;;;;;;;21.49;46.95;95133.78;6102800;28;109138;-70
2023/05/25 04:52:29;;;;;;;33.60;8.17;;;;;;;21.54;46.47;95137.44;6089721;28;108997;-73
2023/05/25 04:55:33;;;;;;;11.73;7.07;;;;;;;21.60;46.09;95134.38;6091346;28;109197;-73
2023/05/25 04:58:37;;;;;;;9.27;7.17;;;;;;;21.64;46.22;95129.22;6103208;28;109127;-73
2023/05/25 05:01:41;;;;;;;13.13;7.13;;;;;;;21.66;46.10;95129.69;6113246;28;109397;-72
2023/05/25 05:04:44;;;;;;;11.73;6.70;;;;;;;21.64;46.26;95123.88;6114121;28;109179;-73
2023/05/25 05:07:47;;;;;;;7.13;6.10;;;;;;;21.62;45.50;95118.88;6113029;28;109369;-72
2023/05/25 05:10:51;;;;;;;9.40;5.97;;;;;;;21.63;45.54;95119.66;6104175;28;110097;-74
2023/05/25 05:13:56;;;;;;;8.13;5.77;;;;;;;21.62;45.86;95124.19;6113358;28;111631;-73
2023/05/25 05:16:59;;;;;;;8.53;6.27;;;;;;;21.62;45.79;95121.53;6113000;28;109247;-64
2023/05/25 05:20:03;;;;;;;7.50;5.63;;;;;;;21.61;45.74;95119.16;6099783;28;109546;-65
2023/05/25 05:23:06;;;;;;;6.10;5.50;;;;;;;21.65;45.29;95130.78;6084010;28;109530;-65
2023/05/25 05:26:10;;;;;;;6.97;5.53;;;;;;;21.69;45.48;95131.78;6117716;28;109907;-64
2023/05/25 05:29:15;;;;;;;12.43;7.20;;;;;;;21.63;46.18;95131.09;6136980;28;110130;-64
2023/05/25 05:32:19;;;;;;;10.90;7.13;;;;;;;21.62;46.34;95131.41;6089034;28;110097;-64
2023/05/25 05:35:22;;;;;;;8.67;7.33;;;;;;;21.68;46.63;95140.88;6088771;28;109598;-64
2023/05/25 05:38:25;;;;;;;11.00;9.73;;;;;;;21.72;46.60;95141.84;6105605;28;109581;-64
2023/05/25 05:41:28;;;;;;;10.60;9.00;;;;;;;21.71;47.13;95140.25;6102061;28;109037;-64
2023/05/25 05:44:33;;;;;;;9.30;8.00;;;;;;;21.73;47.27;95149.53;6102600;28;110457;-64
2023/05/25 05:47:36;;;;;;;10.17;8.70;;;;;;;21.72;47.05;95147.16;6117165;28;110033;-64
2023/05/25 05:50:40;;;;;;;10.17;8.87;;;;;;;21.83;46.92;95155.72;6112568;28;110161;-64
2023/05/25 05:53:44;;;;;;;14.10;9.40;;;;;;;21.87;46.82;95154.06;6107552;28;109255;-66
2023/05/25 05:56:47;;;;;;;9.43;7.63;;;;;;;21.96;47.38;95150.34;6106358;28;110247;-64
2023/05/25 05:59:52;;;;;;;17.07;8.90;;;;;;;22.04;47.21;95148.88;6112394;28;109179;-64
2023/05/25 06:02:55;;;;;;;15.57;8.50;;;;;;;22.13;47.29;95151.56;6104603;28;109777;-64
2023/05/25 06:05:58;;;;;;;16.83;8.93;;;;;;;22.18;47.57;95154.13;6099396;28;109364;-65
2023/05/25 06:09:05;;;;;;;18.33;9.90;;;;;;;22.24;46.91;95142.25;6111944;28;109098;-64
2023/05/25 06:12:09;;;;;;;18.77;8.80;;;;;;;22.28;47.32;95137.88;6131069;28;109265;-65
2023/05/25 06:15:13;;;;;;;18.53;9.10;;;;;;;22.30;47.63;95141.03;6135186;28;109052;-65
2023/05/25 06:18:16;;;;;;;14.00;8.73;;;;;;;22.33;47.35;95145.75;6124168;28;109093;-64
2023/05/25 06:21:20;;;;;;;16.47;8.17;;;;;;;22.36;47.35;95156.63;6135617;28;109126;-65
2023/05/25 06:24:23;;;;;;;14.63;8.30;;;;;;;22.37;47.48;95147.53;6135744;28;109236;-65
2023/05/25 06:27:26;;;;;;;19.63;8.90;;;;;;;22.42;47.29;95151.94;6136239;28;108970;-68
2023/05/25 06:30:31;;;;;;;16.50;9.40;;;;;;;22.42;47.80;95160.72;6125997;28;109539;-65
2023/05/25 06:33:34;;;;;;;14.53;10.77;;;;;;;22.46;47.14;95155.56;6135459;28;109091;-65
2023/05/25 06:36:38;;;;;;;17.33;10.20;;;;;;;22.49;47.53;95149.59;6131623;28;110615;-65
2023/05/25 06:39:43;;;;;;;13.40;9.03;;;;;;;22.49;47.23;95154.94;6105768;28;109916;-65
2023/05/25 06:42:46;;;;;;;16.40;8.97;;;;;;;22.51;47.31;95162.63;6109374;28;109111;-65
2023/05/25 06:45:51;;;;;;;14.43;9.27;;;;;;;22.50;47.63;95169.84;6111608;28;109115;-66
2023/05/25 06:48:55;;;;;;;14.17;10.07;;;;;;;22.53;47.59;95161.25;6111772;28;108978;-66
2023/05/25 06:51:58;;;;;;;17.80;10.60;;;;;;;22.53;47.45;95163.16;6101510;28;111130;-66
2023/05/25 06:55:02;;;;;;;14.50;11.10;;;;;;;22.50;47.52;95161.84;6111575;28;109493;-65
2023/05/25 06:58:05;;;;;;;14.57;10.93;;;;;;;22.54;48.05;95165.50;6110359;28;112004;-66
2023/05/25 07:01:10;;;;;;;12.10;10.30;;;;;;;22.60;47.41;95161.63;6108784;28;109192;-64
2023/05/25 07:04:13;;;;;;;13.67;11.77;;;;;;;22.63;48.15;95154.91;6112177;28;110289;-65
2023/05/25 07:07:16;;;;;;;23.33;12.47;;;;;;;22.72;47.85;95155.75;6119527;28;109455;-66
2023/05/25 07:10:19;;;;;;;45.33;17.07;;;;;;;22.79;48.03;95149.97;6112738;28;109057;-66
2023/05/25 07:13:23;;;;;;;31.87;14.00;;;;;;;22.82;48.30;95152.00;6106165;28;111364;-66
2023/05/25 07:16:27;;;;;;;30.17;13.97;;;;;;;22.85;48.11;95146.03;6097941;28;109132;-66
2023/05/25 07:19:30;;;;;;;21.73;12.90;;;;;;;22.84;48.11;95142.59;6106263;28;109103;-66
2023/05/25 07:22:33;;;;;;;26.50;14.63;;;;;;;22.85;47.94;95151.38;6109135;28;109015;-65
2023/05/25 07:25:38;;;;;;;32.50;13.97;;;;;;;22.84;48.44;95141.81;6100758;28;111745;-66
2023/05/25 07:28:41;;;;;;;31.13;13.80;;;;;;;22.82;48.38;95147.44;6110536;28;109392;-66
2023/05/25 07:31:46;;;;;;;22.00;13.70;;;;;;;22.81;48.31;95150.44;6112829;28;109354;-67
2023/05/25 07:34:49;;;;;;;22.10;12.63;;;;;;;22.79;48.38;95153.41;6090515;28;109579;-71
2023/05/25 07:37:58;;;;;;;26.87;13.03;;;;;;;22.79;48.30;95157.97;6097982;28;109428;-72
2023/05/25 07:41:02;;;;;;;19.43;13.20;;;;;;;22.79;48.74;95164.09;6109380;28;110312;-70
2023/05/25 07:44:05;;;;;;;29.23;15.40;;;;;;;22.81;48.46;95164.56;6107510;28;109607;-72
2023/05/25 07:47:11;;;;;;;33.13;14.33;;;;;;;22.74;48.55;95158.09;6112389;28;108939;-73
2023/05/25 07:50:15;;;;;;;36.43;15.50;;;;;;;22.79;48.98;95157.97;6105473;28;108878;-73
2023/05/25 07:53:18;;;;;;;36.90;14.80;;;;;;;22.67;48.91;95172.66;6113751;28;109291;-73
2023/05/25 07:56:21;;;;;;;28.17;14.60;;;;;;;22.68;49.31;95176.09;6113413;28;109400;-73
2023/05/25 07:59:26;;;;;;;25.90;13.93;;;;;;;22.59;48.57;95181.41;6105633;28;111315;-72
2023/05/25 08:02:31;;;;;;;26.37;16.33;;;;;;;22.39;49.16;95189.88;6112709;28;108985;-73
2023/05/25 08:05:34;;;;;;;71.47;37.40;;;;;;;22.32;49.24;95181.50;6103869;28;111054;-72
2023/05/25 08:08:37;;;;;;;37.57;23.13;;;;;;;22.24;49.67;95182.25;6100504;28;110334;-73
2023/05/25 08:11:40;;;;;;;29.77;20.37;;;;;;;22.13;50.05;95186.22;6100480;28;109748;-74
2023/05/25 08:14:44;;;;;;;36.97;18.60;;;;;;;21.94;50.78;95186.38;6113049;28;109071;-70
2023/05/25 08:17:49;;;;;;;41.07;28.10;;;;;;;22.00;50.82;95190.50;6114088;28;109021;-70
2023/05/25 08:20:53;;;;;;;51.80;35.40;;;;;;;22.20;50.25;95194.59;6113559;28;109418;-70
2023/05/25 08:23:56;;;;;;;93.00;58.63;;;;;;;22.29;49.81;95192.78;6102190;28;111987;-65
2023/05/25 08:27:00;;;;;;;111.67;61.00;;;;;;;22.35;49.71;95204.91;6111796;28;109565;-64
2023/05/25 08:30:05;;;;;;;138.10;70.13;;;;;;;22.38;49.45;95206.97;6112614;28;109114;-66
2023/05/25 08:33:10;;;;;;;156.67;70.63;;;;;;;22.40;49.93;95210.13;6107078;28;109996;-66
2023/05/25 08:36:13;;;;;;;136.63;66.03;;;;;;;22.41;50.07;95214.34;6104450;28;111852;-65
2023/05/25 08:39:17;;;;;;;154.90;71.23;;;;;;;22.40;50.19;95218.91;6106395;28;109122;-65
2023/05/25 08:42:22;;;;;;;161.57;81.67;;;;;;;22.40;49.87;95226.91;6112392;28;109201;-64
2023/05/25 08:45:25;;;;;;;140.73;74.77;;;;;;;22.38;50.94;95231.75;6103538;28;109263;-68
2023/05/25 08:48:38;;;;;;;128.73;65.47;;;;;;;22.37;50.50;95222.19;6112906;28;109340;-69
2023/05/25 08:51:49;;;;;;;103.73;54.60;;;;;;;22.34;50.11;95232.63;6113300;28;110180;-67
2023/05/25 08:54:57;;;;;;;106.67;52.80;;;;;;;22.41;50.01;95243.69;6100668;28;109102;-67
2023/05/25 08:58:07;;;;;;;86.20;49.87;;;;;;;22.50;50.78;95244.53;6091763;28;109791;-66
2023/05/25 09:01:13;;;;;;;92.73;46.63;;;;;;;22.55;50.55;95247.09;6104251;28;110188;-66
2023/05/25 09:04:20;;;;;;;75.70;38.47;;;;;;;22.52;50.89;95246.91;6112314;28;109051;-66
2023/05/25 09:07:24;;;;;;;72.87;35.67;;;;;;;22.52;50.90;95250.38;6101022;28;108851;-63
2023/05/25 09:10:29;;;;;;;60.93;32.07;;;;;;;22.49;50.38;95261.63;6111073;28;109286;-66
2023/05/25 09:13:33;;;;;;;51.27;27.33;;;;;;;22.42;50.04;95259.38;6117381;28;111297;-66
2023/05/25 09:16:37;;;;;;;63.43;36.87;;;;;;;22.39;50.58;95261.88;6111802;28;109293;-66
2023/05/25 09:19:42;;;;;;;54.63;30.70;;;;;;;22.39;50.01;95257.31;6101815;28;110097;-67
2023/05/25 09:22:47;;;;;;;50.43;28.40;;;;;;;22.37;50.00;95259.50;6110618;28;109103;-65
2023/05/25 09:25:51;;;;;;;37.60;22.87;;;;;;;22.38;50.07;95255.75;6111978;28;109285;-66
2023/05/25 09:28:55;;;;;;;29.63;18.93;;;;;;;22.37;49.98;95243.50;6109162;28;109537;-68
2023/05/25 09:31:58;;;;;;;39.33;20.23;;;;;;;22.35;49.79;95245.69;6099215;28;109207;-67
2023/05/25 09:35:09;;;;;;;31.53;22.10;;;;;;;22.34;50.17;95246.75;6110756;28;109153;-67
2023/05/25 09:38:13;;;;;;;30.20;20.90;;;;;;;22.34;50.44;95246.75;6106337;28;109114;-67
2023/05/25 09:41:17;;;;;;;32.23;19.87;;;;;;;22.36;50.04;95243.81;6106355;28;109431;-68
2023/05/25 09:44:20;;;;;;;27.50;15.90;;;;;;;22.38;50.82;95239.75;6106985;28;109545;-67
2023/05/25 09:47:24;;;;;;;23.50;15.13;;;;;;;22.44;51.05;95240.41;6108226;28;109997;-66
2023/05/25 09:50:29;;;;;;;26.53;15.30;;;;;;;22.48;50.91;95228.03;6097551;28;109399;-67
2023/05/25 09:53:32;;;;;;;25.90;15.60;;;;;;;22.49;51.80;95234.94;6098447;28;109765;-71
2023/05/25 09:56:36;;;;;;;698.57;156.90;;;;;;;22.35;51.47;95229.69;6110016;28;110657;-61
2023/05/25 09:59:40;;;;;;;731.17;140.93;;;;;;;22.38;51.58;95226.41;6111161;28;108944;-61
2023/05/25 10:02:43;;;;;;;456.70;91.27;;;;;;;22.43;52.00;95225.50;6111054;28;109890;-61
2023/05/25 10:05:49;;;;;;;303.40;70.87;;;;;;;22.41;51.07;95217.81;6100453;28;109224;-61
2023/05/25 10:08:53;;;;;;;275.83;59.13;;;;;;;22.42;50.99;95215.94;6111585;28;109607;-61
2023/05/25 10:11:58;;;;;;;203.90;51.00;;;;;;;22.42;50.82;95219.38;6110550;28;109438;-61
2023/05/25 10:15:03;;;;;;;239.27;119.03;;;;;;;22.40;52.19;95202.91;6107797;28;109624;-63
2023/05/25 10:18:07;;;;;;;169.10;91.60;;;;;;;22.43;51.78;95201.50;6095810;28;109138;-61
2023/05/25 10:21:15;;;;;;;155.63;96.93;;;;;;;22.48;52.11;95201.38;6087349;28;110006;-61
2023/05/25 10:24:28;;;;;;;160.50;93.87;;;;;;;22.50;51.96;95196.53;6107422;28;109257;-61
2023/05/25 10:27:37;;;;;;;147.13;74.93;;;;;;;22.50;52.23;95183.19;6100556;28;109231;-62
2023/05/25 10:30:41;;;;;;;127.37;66.00;;;;;;;22.51;52.17;95179.44;6111576;28;109139;-62
2023/05/25 10:33:45;;;;;;;115.97;56.50;;;;;;;22.54;52.03;95186.06;6110413;28;109046;-61
2023/05/25 10:36:56;;;;;;;89.97;51.10;;;;;;;22.55;52.76;95176.97;6107219;28;111791;-62
2023/05/25 10:40:01;;;;;;;91.90;48.10;;;;;;;22.57;52.06;95175.59;6077016;28;109114;-62
2023/05/25 10:43:06;;;;;;;79.40;42.60;;;;;;;22.56;52.67;95168.66;6086919;28;109104;-61
2023/05/25 10:46:10;;;;;;;71.67;37.17;;;;;;;22.55;52.99;95169.75;6087756;28;109152;-62
2023/05/25 10:49:13;;;;;;;66.60;36.40;;;;;;;22.56;53.71;95165.97;6082613;28;109122;-62
2023/05/25 10:52:19;;;;;;;70.20;33.20;;;;;;;22.54;52.90;95152.16;6084668;28;111999;-61
2023/05/25 10:55:26;;;;;;;55.63;29.17;;;;;;;22.56;53.15;95152.66;6111683;28;110073;-62
2023/05/25 10:58:31;;;;;;;60.43;35.03;;;;;;;22.56;53.15;95147.31;6111354;28;109117;-61
2023/05/25 11:01:51;;;;;;;54.93;37.33;;;;;;;22.58;53.43;95161.16;6100286;28;109334;-62
2023/05/25 11:05:35;;;;;;;72.10;39.60;;;;;;;22.55;53.05;95147.63;6086309;28;108640;-62
2023/05/25 11:08:51;;;;;;;76.93;41.50;;;;;;;22.56;52.66;95141.19;6104897;28;110234;-67
2023/05/25 11:12:05;;;;;;;60.17;37.20;;;;;;;22.55;53.12;95145.75;6105055;28;109594;-66
2023/05/25 11:15:15;;;;;;;55.83;30.57;;;;;;;22.55;52.83;95142.28;6095420;28;109171;-68
2023/05/25 11:18:18;;;;;;;177.50;45.57;;;;;;;22.57;52.43;95151.59;6110548;28;109098;-67
2023/05/25 11:21:42;;;;;;;283.67;53.27;;;;;;;22.52;52.77;95141.03;6110373;28;109280;-67
2023/05/25 11:24:47;;;;;;;196.43;43.63;;;;;;;22.52;52.47;95135.69;6099885;28;109877;-67
2023/05/25 11:27:53;;;;;;;172.17;43.43;;;;;;;22.54;52.11;95136.16;6110239;28;108964;-67
2023/05/25 11:30:56;;;;;;;144.33;41.00;;;;;;;22.55;52.26;95131.63;6110187;28;109026;-67
2023/05/25 11:34:03;;;;;;;109.20;34.43;;;;;;;22.55;52.42;95142.28;6109783;28;109283;-67
2023/05/25 11:37:08;;;;;;;137.50;34.63;;;;;;;22.54;52.27;95138.84;6100132;28;109066;-67
2023/05/25 11:40:17;;;;;;;169.03;39.67;;;;;;;22.53;51.85;95139.94;6110628;28;109709;-66
2023/05/25 11:43:22;;;;;;;150.83;31.63;;;;;;;22.51;52.22;95142.09;6110090;28;109380;-67
2023/05/25 11:46:26;;;;;;;106.97;29.20;;;;;;;22.51;51.81;95142.09;6105867;28;110190;-66
2023/05/25 11:49:29;;;;;;;86.50;24.27;;;;;;;22.51;52.00;95135.97;6105446;28;108922;-66
2023/05/25 11:52:32;;;;;;;92.00;25.93;;;;;;;22.50;51.90;95145.84;6109203;28;109133;-66
2023/05/25 11:55:40;;;;;;;76.20;28.23;;;;;;;22.50;52.41;95134.41;6110237;28;109345;-66
2023/05/25 11:58:44;;;;;;;61.27;26.07;;;;;;;22.52;52.11;95135.69;6100091;28;109548;-66
2023/05/25 12:01:58;;;;;;;52.00;14.73;;;;;;;22.31;51.67;95131.94;6108911;28;109357;-74
2023/05/25 12:05:01;;;;;;;48.90;13.70;;;;;;;22.18;52.44;95128.28;6110237;28;110914;-67
2023/05/25 12:08:05;;;;;;;29.73;13.47;;;;;;;22.32;52.26;95128.19;6109741;28;108849;-66
2023/05/25 12:11:09;;;;;;;36.77;14.30;;;;;;;22.39;51.71;95134.66;6099445;28;110109;-67
2023/05/25 12:14:13;;;;;;;21.90;11.43;;;;;;;22.44;51.97;95131.06;6108788;28;109108;-67
2023/05/25 12:17:18;;;;;;;27.37;11.60;;;;;;;22.49;52.29;95122.94;6098768;28;111008;-65
2023/05/25 12:20:21;;;;;;;25.37;11.53;;;;;;;22.54;52.17;95120.16;6108114;28;109952;-67
2023/05/25 12:23:25;;;;;;;35.40;17.87;;;;;;;22.62;52.32;95116.78;6107266;28;109573;-66
2023/05/25 12:26:30;;;;;;;43.60;20.17;;;;;;;22.64;51.85;95114.56;6101554;28;109181;-67
2023/05/25 12:29:33;;;;;;;45.50;24.23;;;;;;;22.68;52.31;95106.75;6111523;28;109817;-67
2023/05/25 12:32:54;;;;;;;51.77;24.40;;;;;;;22.70;52.16;95096.56;6102638;28;108954;-67
2023/05/25 12:35:57;;;;;;;49.23;20.90;;;;;;;22.72;51.54;95088.25;6113584;28;110435;-69
2023/05/25 12:39:00;;;;;;;45.97;25.83;;;;;;;22.72;51.87;95082.94;6113333;28;109096;-67
2023/05/25 12:42:12;;;;;;;59.53;22.97;;;;;;;22.69;52.08;95073.66;6112998;28;109067;-66
2023/05/25 12:45:15;;;;;;;40.60;21.50;;;;;;;22.68;52.64;95072.88;6103865;28;108790;-69
2023/05/25 12:48:26;;;;;;;53.43;21.77;;;;;;;22.58;51.84;95067.81;6113255;28;109772;-69
2023/05/25 12:51:38;;;;;;;56.47;17.73;;;;;;;22.34;50.97;95064.66;6113560;28;109195;-71
2023/05/25 12:54:43;;;;;;;48.30;13.67;;;;;;;22.46;50.39;95058.78;6105343;28;110949;-72
2023/05/25 12:57:51;;;;;;;34.47;11.60;;;;;;;22.51;50.47;95055.97;6101781;28;109149;-72
2023/05/25 13:00:54;;;;;;;22.10;10.17;;;;;;;22.52;50.80;95047.69;6099008;28;108569;-72
2023/05/25 13:03:57;;;;;;;18.20;10.50;;;;;;;22.54;50.89;95050.81;6107116;28;109374;-71
2023/05/25 13:07:01;;;;;;;17.63;9.90;;;;;;;22.59;50.81;95034.72;6103080;28;111983;-71
2023/05/25 13:10:05;;;;;;;19.07;10.40;;;;;;;22.61;51.04;95037.06;6112689;28;109133;-71
2023/05/25 13:13:11;;;;;;;16.53;10.07;;;;;;;22.62;50.81;95030.63;6112482;28;109790;-71
2023/05/25 13:16:14;;;;;;;11.73;9.73;;;;;;;22.65;50.73;95019.34;6112727;28;110004;-72
2023/05/25 13:19:18;;;;;;;12.33;10.30;;;;;;;22.66;50.93;95020.91;6103545;28;108857;-72
2023/05/25 13:22:21;;;;;;;15.23;9.30;;;;;;;22.66;50.81;95021.69;6112204;28;109672;-72
2023/05/25 13:25:25;;;;;;;10.60;8.60;;;;;;;22.64;51.01;95020.44;6120143;28;109997;-66
2023/05/25 13:28:31;;;;;;;16.13;8.80;;;;;;;22.64;50.66;95018.56;6104414;28;111238;-66
2023/05/25 13:31:34;;;;;;;13.63;8.87;;;;;;;22.62;50.99;95019.97;6093258;28;109167;-67
2023/05/25 13:34:37;;;;;;;11.40;8.10;;;;;;;22.60;49.43;95012.28;6111696;28;109016;-67
2023/05/25 13:37:41;;;;;;;10.90;5.97;;;;;;;22.67;48.49;95009.94;6111997;28;109607;-67
2023/05/25 13:40:44;;;;;;;7.83;5.80;;;;;;;22.70;48.77;95017.34;6101227;28;109637;-63
2023/05/25 13:43:49;;;;;;;19.25;6.03;;;;;;;22.78;49.39;95018.44;6110065;28;109122;-68
2023/05/25 13:46:52;;;;;;;18.33;6.30;;;;;;;22.76;48.53;95031.31;6106563;28;108967;-68
2023/05/25 13:49:55;;;;;;;12.80;5.43;;;;;;;22.77;47.21;95024.09;6111031;28;109057;-64
2023/05/25 13:52:58;;;;;;;23.57;5.30;;;;;;;22.81;45.74;95028.47;6102091;28;109813;-67
2023/05/25 13:56:02;;;;;;;32.87;6.03;;;;;;;22.83;45.41;95020.16;6112598;28;111348;-69
2023/05/25 13:59:06;;;;;;;48.33;6.83;;;;;;;22.83;44.05;95017.50;6102005;28;109222;-63
2023/05/25 14:02:09;;;;;;;42.37;6.50;;;;;;;22.87;43.07;95019.25;6097776;28;109100;-63
2023/05/25 14:05:12;;;;;;;29.77;7.53;;;;;;;22.90;44.07;95017.84;6105719;28;110195;-62
2023/05/25 14:08:16;;;;;;;17.90;4.60;;;;;;;22.90;43.36;95015.19;6115688;28;109078;-69